Aérodrome :
LOGIN :

S'inscrire | Disclaimer

   EN    FR    IT 

 










Légende :    VFR   VFR Marginal   IFR   IFR Intensif   IFR Très Intensif
Visi : 
Plafond : 
>= 8 km
>= 3000ft
5 à 8 km
1000 à 3000 ft
1500m à 5 km
500 à 1000 ft
800 à 1500m
200 à 500 ft
< 800m
< 200 ft
Symboles :   Orages  Brouillard  Fortes neiges  Fortes précipitations  Vent > 20 kt
SIGMETs :   Divers  Orages  Givrage  Turbulence  Onde Orograph.  Cendres Volcan.







- Altitude de l'aérodrome : 82 ft
- Code IATA : QIE
- Voir les cartes d'approche


LFMI - Istres

DERNIER METAR :
  • 191830Z AUTO 32016KT CAVOK 16/05 Q1019 TEMPO 33027G37KT

METARs EXPIRÉS :
  • 191800Z AUTO 32019G31KT CAVOK 17/04 Q1018 NOSIG
  • 191730Z AUTO 33021KT CAVOK 18/04 Q1018 TEMPO 33027G37KT
  • 191700Z AUTO 32024KT CAVOK 18/03 Q1017 TEMPO 33027G37KT
  • 191630Z AUTO 33021KT CAVOK 19/04 Q1017 TEMPO 33027G37KT
  • 191600Z AUTO 34022KT CAVOK 19/04 Q1017 TEMPO 33027G37KT

TAF TAF LFMI
Valide du 19 à 15h jusqu'au 20 à 15h UTC


191400Z 1915/2015 34025KT CAVOK
TEMPO 1915/2004 33027G37KT
BECMG 2011/2013 34015G25KT
Pas de NOTAMs connus pour ce terrain.
3 SIGMETs publiés pour la FIR Marseille (LFMM) :
 
Turbulence forte
LFMM SIGMET 9 VALID 191600/192000 LFPW
LFMM MARSEILLE FIR/UIR SEV TURB FCST WI N4130 E00500 - N4400 E00500 - N4200 E00815 - N4045 E00715 SFC/FL050 STNR NC=
Turbulence forte
LFMM SIGMET 7 VALID 191600/192000 LFPW
LFMM MARSEILLE FIR/UIR SEV TURB FCST WI N4130 E00530 - N4400 E00330 - N4415 E00515 - N4200 E00700 FL200/320 MOV SE 60KT NC=
Orages noyés dans la masse
LFMM SIGMET 11 VALID 191800/192000 LFPW
LFMM MARSEILLE FIR/UIR EMBD TS OBS WI N4315 E00945 - N4115 E00945 - N4115 E00845 - N4245 E00830 TOP FL300 STNR NC=



MET'MAP, la Météo Aéronautique d'un coup d'oeil ! - Copyright ORBIFLY Décembre 2007 - Disclaimer

ORBIFLY MET'MAP TEAM :

Programmation & Développement : Alexandra Zaïnal
Conception & Développement : Baudouin d'Aumeries
Co-Programmation & Développement : Marc-Olivier Méhu
Soutien technique & logistique : Manuel Goepfert

Contact : metmap@orbifly.com




SOURCES & CREDITS :

   NOAA